Ever Deluxe — 9V7953 — position and weather

sailwx.info

Track history (hours):
 
Tides and Currents Weather Stations Pressure Air Temp Water Temp Dewpoint Dewpoint Depression Visibility Wind Speed Wind Dir Waves Ship Positions

Ever Deluxe

Last reported at 2018-Jul-18 04:51 UTC. Time now 2018-Jul-21 21:05 UTC.
Position N 01°33' E 104°37'.

Length 295 m; draft 10 m.

Type: Cargo ship. MMSI: 564621000.

Date/timePositionNaut miles runAvg speedWind from/ knotsBaromVisibWave heightAir tempDewpointWater temp
2018-Jul-18 04:51N 01°33' E 104°37'719.3
2018-Jul-18 04:28N 01°27' E 104°33'917.2
2018-Jul-18 03:59N 01°22' E 104°26'816.8
2018-Jul-18 03:29N 01°18' E 104°19'917.0
2018-Jul-18 02:58N 01°16' E 104°10'817.3
2018-Jul-18 02:30N 01°15' E 104°02'816.6
2018-Jul-18 02:00N 01°13' E 103°54'612.6
2018-Jul-18 01:31N 01°13' E 103°48'4 7.5
2018-Jul-18 00:59N 01°16' E 103°47'0 0.4
2018-Jul-18 00:30N 01°17' E 103°47'0 0.0
2018-Jul-17 23:56N 01°17' E 103°47'0 0.0
2018-Jul-17 23:30N 01°17' E 103°47'0 0.0
2018-Jul-17 22:59N 01°17' E 103°47'0 0.0
2018-Jul-17 22:30N 01°17' E 103°47'0 0.0
2018-Jul-17 21:59N 01°17' E 103°47'0 0.0
2018-Jul-17 21:27N 01°17' E 103°47'0 0.0
2018-Jul-17 20:56N 01°17' E 103°47'0 0.0
2018-Jul-17 20:26N 01°17' E 103°47'0 0.0
2018-Jul-17 19:59N 01°17' E 103°47'0 0.0
2018-Jul-17 19:30N 01°17' E 103°47'0 0.0
2018-Jul-17 18:59N 01°17' E 103°47'0 0.0
2018-Jul-17 18:30N 01°17' E 103°47'0 0.0
2018-Jul-17 17:59N 01°17' E 103°47'0 0.0
2018-Jul-17 17:30N 01°17' E 103°47'0 0.0
2018-Jul-17 16:59N 01°17' E 103°47'0 0.0
2018-Jul-17 16:28N 01°17' E 103°47'0 0.0
2018-Jul-17 15:58N 01°17' E 103°47'0 0.0
2018-Jul-17 15:28N 01°17' E 103°47'0 0.0
2018-Jul-17 15:01N 01°17' E 103°47'0 0.0
2018-Jul-17 14:29N 01°17' E 103°47'0 0.0
2018-Jul-17 14:01N 01°17' E 103°47'0 0.0
2018-Jul-17 13:28N 01°17' E 103°47'0 0.0
2018-Jul-17 12:58N 01°17' E 103°47'0 0.0
2018-Jul-17 12:28N 01°17' E 103°47'0 0.0
2018-Jul-17 12:01N 01°17' E 103°47'0 0.0
2018-Jul-17 11:30N 01°17' E 103°47'0 0.3
2018-Jul-17 11:00N 01°17' E 103°47'1 2.4
2018-Jul-17 10:30N 01°15' E 103°46'3 5.2
2018-Jul-17 10:00N 01°15' E 103°44'510.3
2018-Jul-17 09:30N 01°12' E 103°39'4 7.9
2018-Jul-17 09:00N 01°11' E 103°35'4 8.9
2018-Jul-17 08:30N 01°10' E 103°31'713.1
2018-Jul-17 08:00N 01°12' E 103°24'918.1
2018-Jul-17 07:30N 01°18' E 103°17'  
Track history (hours):
 
Tides and Currents Weather Stations Pressure Air Temp Water Temp Dewpoint Dewpoint Depression Visibility Wind Speed Wind Dir Waves Ship Positions

Ever Deluxe

Last reported at 2018-Jul-18 04:51 UTC. Time now 2018-Jul-21 21:05 UTC.
Position N 01°33' E 104°37'.

Length 295 m; draft 10 m.

Type: Cargo ship. MMSI: 564621000.

Date/timePositionNaut miles runAvg speedWind from/ knotsBaromVisibWave heightAir tempDewpointWater temp
2018-Jul-18 04:51N 01°33' E 104°37'719.3
2018-Jul-18 04:28N 01°27' E 104°33'917.2
2018-Jul-18 03:59N 01°22' E 104°26'816.8
2018-Jul-18 03:29N 01°18' E 104°19'917.0
2018-Jul-18 02:58N 01°16' E 104°10'817.3
2018-Jul-18 02:30N 01°15' E 104°02'816.6
2018-Jul-18 02:00N 01°13' E 103°54'612.6
2018-Jul-18 01:31N 01°13' E 103°48'4 7.5
2018-Jul-18 00:59N 01°16' E 103°47'0 0.4
2018-Jul-18 00:30N 01°17' E 103°47'0 0.0
2018-Jul-17 23:56N 01°17' E 103°47'0 0.0
2018-Jul-17 23:30N 01°17' E 103°47'0 0.0
2018-Jul-17 22:59N 01°17' E 103°47'0 0.0
2018-Jul-17 22:30N 01°17' E 103°47'0 0.0
2018-Jul-17 21:59N 01°17' E 103°47'0 0.0
2018-Jul-17 21:27N 01°17' E 103°47'0 0.0
2018-Jul-17 20:56N 01°17' E 103°47'0 0.0
2018-Jul-17 20:26N 01°17' E 103°47'0 0.0
2018-Jul-17 19:59N 01°17' E 103°47'0 0.0
2018-Jul-17 19:30N 01°17' E 103°47'0 0.0
2018-Jul-17 18:59N 01°17' E 103°47'0 0.0
2018-Jul-17 18:30N 01°17' E 103°47'0 0.0
2018-Jul-17 17:59N 01°17' E 103°47'0 0.0
2018-Jul-17 17:30N 01°17' E 103°47'0 0.0
2018-Jul-17 16:59N 01°17' E 103°47'0 0.0
2018-Jul-17 16:28N 01°17' E 103°47'0 0.0
2018-Jul-17 15:58N 01°17' E 103°47'0 0.0
2018-Jul-17 15:28N 01°17' E 103°47'0 0.0
2018-Jul-17 15:01N 01°17' E 103°47'0 0.0
2018-Jul-17 14:29N 01°17' E 103°47'0 0.0
2018-Jul-17 14:01N 01°17' E 103°47'0 0.0
2018-Jul-17 13:28N 01°17' E 103°47'0 0.0
2018-Jul-17 12:58N 01°17' E 103°47'0 0.0
2018-Jul-17 12:28N 01°17' E 103°47'0 0.0
2018-Jul-17 12:01N 01°17' E 103°47'0 0.0
2018-Jul-17 11:30N 01°17' E 103°47'0 0.3
2018-Jul-17 11:00N 01°17' E 103°47'1 2.4
2018-Jul-17 10:30N 01°15' E 103°46'3 5.2
2018-Jul-17 10:00N 01°15' E 103°44'510.3
2018-Jul-17 09:30N 01°12' E 103°39'4 7.9
2018-Jul-17 09:00N 01°11' E 103°35'4 8.9
2018-Jul-17 08:30N 01°10' E 103°31'713.1
2018-Jul-17 08:00N 01°12' E 103°24'918.1
2018-Jul-17 07:30N 01°18' E 103°17'  

Dump ship's entire track history